sensor_id;sensor_type;location;lat;lon;timestamp;P1;durP1;ratioP1;P2;durP2;ratioP2
53040;SDS011;39326;42.650;23.248;2023-12-20T00:01:35;3.83;;;3.10;;
53040;SDS011;39326;42.650;23.248;2023-12-20T00:04:00;4.73;;;3.13;;
53040;SDS011;39326;42.650;23.248;2023-12-20T00:06:26;4.70;;;3.83;;
53040;SDS011;39326;42.650;23.248;2023-12-20T00:08:52;4.13;;;3.27;;
53040;SDS011;39326;42.650;23.248;2023-12-20T00:11:18;3.93;;;3.30;;
53040;SDS011;39326;42.650;23.248;2023-12-20T00:13:44;6.40;;;4.20;;
53040;SDS011;39326;42.650;23.248;2023-12-20T00:16:09;4.40;;;3.70;;
53040;SDS011;39326;42.650;23.248;2023-12-20T00:18:34;5.80;;;4.23;;
53040;SDS011;39326;42.650;23.248;2023-12-20T00:21:00;4.97;;;3.70;;
53040;SDS011;39326;42.650;23.248;2023-12-20T00:23:25;4.40;;;3.80;;
53040;SDS011;39326;42.650;23.248;2023-12-20T00:25:51;4.20;;;3.43;;
53040;SDS011;39326;42.650;23.248;2023-12-20T00:28:16;3.30;;;3.00;;
53040;SDS011;39326;42.650;23.248;2023-12-20T00:30:41;3.53;;;3.23;;
53040;SDS011;39326;42.650;23.248;2023-12-20T00:33:07;4.53;;;3.40;;
53040;SDS011;39326;42.650;23.248;2023-12-20T00:35:32;3.87;;;3.47;;
53040;SDS011;39326;42.650;23.248;2023-12-20T00:37:58;4.60;;;3.67;;
53040;SDS011;39326;42.650;23.248;2023-12-20T00:40:24;6.90;;;4.40;;
53040;SDS011;39326;42.650;23.248;2023-12-20T00:42:49;5.70;;;4.60;;
53040;SDS011;39326;42.650;23.248;2023-12-20T00:45:15;5.87;;;5.27;;
53040;SDS011;39326;42.650;23.248;2023-12-20T00:47:40;5.87;;;4.27;;
53040;SDS011;39326;42.650;23.248;2023-12-20T00:50:06;5.70;;;4.50;;
53040;SDS011;39326;42.650;23.248;2023-12-20T00:52:32;5.13;;;4.27;;
53040;SDS011;39326;42.650;23.248;2023-12-20T00:54:57;6.17;;;4.70;;
53040;SDS011;39326;42.650;23.248;2023-12-20T00:57:22;5.47;;;4.43;;
53040;SDS011;39326;42.650;23.248;2023-12-20T00:59:48;6.57;;;4.53;;
53040;SDS011;39326;42.650;23.248;2023-12-20T01:02:14;4.53;;;4.00;;
53040;SDS011;39326;42.650;23.248;2023-12-20T01:04:39;4.63;;;3.80;;
53040;SDS011;39326;42.650;23.248;2023-12-20T01:07:04;4.73;;;3.50;;
53040;SDS011;39326;42.650;23.248;2023-12-20T01:09:30;4.63;;;4.23;;
53040;SDS011;39326;42.650;23.248;2023-12-20T01:11:55;3.37;;;3.07;;
53040;SDS011;39326;42.650;23.248;2023-12-20T01:14:20;3.77;;;2.73;;
53040;SDS011;39326;42.650;23.248;2023-12-20T01:16:46;2.33;;;2.10;;
53040;SDS011;39326;42.650;23.248;2023-12-20T01:19:12;2.00;;;1.60;;
53040;SDS011;39326;42.650;23.248;2023-12-20T01:21:38;1.67;;;1.50;;
53040;SDS011;39326;42.650;23.248;2023-12-20T01:24:04;1.83;;;1.60;;
53040;SDS011;39326;42.650;23.248;2023-12-20T01:26:29;2.57;;;2.37;;
53040;SDS011;39326;42.650;23.248;2023-12-20T01:28:55;2.67;;;2.03;;
53040;SDS011;39326;42.650;23.248;2023-12-20T01:31:20;2.80;;;2.27;;
53040;SDS011;39326;42.650;23.248;2023-12-20T01:33:45;2.63;;;2.33;;
53040;SDS011;39326;42.650;23.248;2023-12-20T01:36:11;3.10;;;2.50;;
53040;SDS011;39326;42.650;23.248;2023-12-20T01:38:37;3.47;;;2.80;;
53040;SDS011;39326;42.650;23.248;2023-12-20T01:41:02;3.20;;;2.77;;
53040;SDS011;39326;42.650;23.248;2023-12-20T01:43:28;3.90;;;3.47;;
53040;SDS011;39326;42.650;23.248;2023-12-20T01:45:55;5.17;;;4.00;;
53040;SDS011;39326;42.650;23.248;2023-12-20T01:48:22;4.30;;;3.87;;
53040;SDS011;39326;42.650;23.248;2023-12-20T01:50:49;6.00;;;3.33;;
53040;SDS011;39326;42.650;23.248;2023-12-20T01:53:14;2.80;;;2.50;;
53040;SDS011;39326;42.650;23.248;2023-12-20T01:55:40;3.23;;;2.10;;
53040;SDS011;39326;42.650;23.248;2023-12-20T01:58:07;2.90;;;1.70;;
53040;SDS011;39326;42.650;23.248;2023-12-20T02:00:35;3.03;;;2.27;;
53040;SDS011;39326;42.650;23.248;2023-12-20T02:03:02;2.30;;;1.93;;
53040;SDS011;39326;42.650;23.248;2023-12-20T02:05:31;3.43;;;2.30;;
53040;SDS011;39326;42.650;23.248;2023-12-20T02:07:57;3.40;;;2.70;;
53040;SDS011;39326;42.650;23.248;2023-12-20T02:10:23;3.57;;;3.27;;
53040;SDS011;39326;42.650;23.248;2023-12-20T02:12:49;4.77;;;3.80;;
53040;SDS011;39326;42.650;23.248;2023-12-20T02:15:15;4.40;;;4.00;;
53040;SDS011;39326;42.650;23.248;2023-12-20T02:17:40;4.07;;;3.47;;
53040;SDS011;39326;42.650;23.248;2023-12-20T02:20:06;5.03;;;4.03;;
53040;SDS011;39326;42.650;23.248;2023-12-20T02:22:32;5.40;;;3.93;;
53040;SDS011;39326;42.650;23.248;2023-12-20T02:24:57;5.10;;;3.67;;
53040;SDS011;39326;42.650;23.248;2023-12-20T02:27:23;3.20;;;2.90;;
53040;SDS011;39326;42.650;23.248;2023-12-20T02:29:49;2.33;;;1.83;;
53040;SDS011;39326;42.650;23.248;2023-12-20T02:32:15;2.53;;;2.30;;
53040;SDS011;39326;42.650;23.248;2023-12-20T02:34:42;3.97;;;2.70;;
53040;SDS011;39326;42.650;23.248;2023-12-20T02:37:07;5.40;;;3.73;;
53040;SDS011;39326;42.650;23.248;2023-12-20T02:39:33;7.23;;;5.83;;
53040;SDS011;39326;42.650;23.248;2023-12-20T02:41:58;7.73;;;6.73;;
53040;SDS011;39326;42.650;23.248;2023-12-20T02:44:24;6.17;;;5.57;;
53040;SDS011;39326;42.650;23.248;2023-12-20T02:46:49;9.57;;;5.57;;
53040;SDS011;39326;42.650;23.248;2023-12-20T02:49:15;7.30;;;6.30;;
53040;SDS011;39326;42.650;23.248;2023-12-20T02:51:40;7.07;;;6.17;;
53040;SDS011;39326;42.650;23.248;2023-12-20T02:54:06;8.70;;;7.30;;
53040;SDS011;39326;42.650;23.248;2023-12-20T02:56:34;8.63;;;7.53;;
53040;SDS011;39326;42.650;23.248;2023-12-20T02:59:00;8.20;;;6.67;;
53040;SDS011;39326;42.650;23.248;2023-12-20T03:01:27;6.60;;;5.53;;
53040;SDS011;39326;42.650;23.248;2023-12-20T03:03:52;5.03;;;4.53;;
53040;SDS011;39326;42.650;23.248;2023-12-20T03:06:18;8.37;;;7.57;;
53040;SDS011;39326;42.650;23.248;2023-12-20T03:08:44;7.90;;;7.20;;
53040;SDS011;39326;42.650;23.248;2023-12-20T03:11:10;11.20;;;10.13;;
53040;SDS011;39326;42.650;23.248;2023-12-20T03:13:35;21.70;;;19.47;;
53040;SDS011;39326;42.650;23.248;2023-12-20T03:16:00;21.20;;;19.27;;
53040;SDS011;39326;42.650;23.248;2023-12-20T03:18:26;27.40;;;24.90;;
53040;SDS011;39326;42.650;23.248;2023-12-20T03:20:53;23.23;;;20.83;;
53040;SDS011;39326;42.650;23.248;2023-12-20T03:23:18;25.40;;;22.87;;
53040;SDS011;39326;42.650;23.248;2023-12-20T03:25:44;25.43;;;23.13;;
53040;SDS011;39326;42.650;23.248;2023-12-20T03:28:09;25.03;;;22.83;;
53040;SDS011;39326;42.650;23.248;2023-12-20T03:30:34;26.53;;;24.03;;
53040;SDS011;39326;42.650;23.248;2023-12-20T03:33:00;21.30;;;19.47;;
53040;SDS011;39326;42.650;23.248;2023-12-20T03:35:25;22.37;;;20.20;;
53040;SDS011;39326;42.650;23.248;2023-12-20T03:37:51;24.80;;;22.30;;
53040;SDS011;39326;42.650;23.248;2023-12-20T03:40:16;22.43;;;20.23;;
53040;SDS011;39326;42.650;23.248;2023-12-20T03:42:42;15.77;;;14.37;;
53040;SDS011;39326;42.650;23.248;2023-12-20T03:45:07;13.07;;;11.77;;
53040;SDS011;39326;42.650;23.248;2023-12-20T03:47:33;13.80;;;12.50;;
53040;SDS011;39326;42.650;23.248;2023-12-20T03:49:59;11.63;;;10.60;;
53040;SDS011;39326;42.650;23.248;2023-12-20T03:52:24;9.27;;;8.37;;
53040;SDS011;39326;42.650;23.248;2023-12-20T03:54:49;7.40;;;6.57;;
53040;SDS011;39326;42.650;23.248;2023-12-20T03:57:15;7.13;;;5.93;;
53040;SDS011;39326;42.650;23.248;2023-12-20T03:59:40;6.33;;;5.43;;
53040;SDS011;39326;42.650;23.248;2023-12-20T04:02:05;6.57;;;5.23;;
53040;SDS011;39326;42.650;23.248;2023-12-20T04:04:31;8.03;;;5.97;;
53040;SDS011;39326;42.650;23.248;2023-12-20T04:06:56;6.93;;;6.00;;
53040;SDS011;39326;42.650;23.248;2023-12-20T04:09:22;6.63;;;5.93;;
53040;SDS011;39326;42.650;23.248;2023-12-20T04:11:47;7.53;;;6.13;;
53040;SDS011;39326;42.650;23.248;2023-12-20T04:14:12;6.53;;;5.83;;
53040;SDS011;39326;42.650;23.248;2023-12-20T04:16:38;5.93;;;5.20;;
53040;SDS011;39326;42.650;23.248;2023-12-20T04:19:04;6.13;;;5.10;;
53040;SDS011;39326;42.650;23.248;2023-12-20T04:21:29;5.03;;;4.20;;
53040;SDS011;39326;42.650;23.248;2023-12-20T04:23:55;5.20;;;4.70;;
53040;SDS011;39326;42.650;23.248;2023-12-20T04:26:20;7.43;;;6.73;;
53040;SDS011;39326;42.650;23.248;2023-12-20T04:28:46;6.20;;;5.60;;
53040;SDS011;39326;42.650;23.248;2023-12-20T04:31:11;6.27;;;5.67;;
53040;SDS011;39326;42.650;23.248;2023-12-20T04:33:37;5.77;;;5.17;;
53040;SDS011;39326;42.650;23.248;2023-12-20T04:36:02;7.47;;;6.73;;
53040;SDS011;39326;42.650;23.248;2023-12-20T04:38:28;7.90;;;7.07;;
53040;SDS011;39326;42.650;23.248;2023-12-20T04:40:53;6.80;;;5.70;;
53040;SDS011;39326;42.650;23.248;2023-12-20T04:43:19;7.50;;;5.87;;
53040;SDS011;39326;42.650;23.248;2023-12-20T04:45:44;5.00;;;4.33;;
53040;SDS011;39326;42.650;23.248;2023-12-20T04:48:09;2.93;;;2.67;;
53040;SDS011;39326;42.650;23.248;2023-12-20T04:50:35;3.77;;;3.30;;
53040;SDS011;39326;42.650;23.248;2023-12-20T04:53:00;4.50;;;4.10;;
53040;SDS011;39326;42.650;23.248;2023-12-20T04:55:26;4.83;;;4.33;;
53040;SDS011;39326;42.650;23.248;2023-12-20T04:57:51;5.97;;;4.57;;
53040;SDS011;39326;42.650;23.248;2023-12-20T05:00:17;5.90;;;5.30;;
53040;SDS011;39326;42.650;23.248;2023-12-20T05:02:42;6.37;;;4.60;;
53040;SDS011;39326;42.650;23.248;2023-12-20T05:05:08;4.83;;;4.00;;
53040;SDS011;39326;42.650;23.248;2023-12-20T05:07:33;5.20;;;4.70;;
53040;SDS011;39326;42.650;23.248;2023-12-20T05:09:59;5.47;;;3.97;;
53040;SDS011;39326;42.650;23.248;2023-12-20T05:12:24;6.07;;;5.27;;
53040;SDS011;39326;42.650;23.248;2023-12-20T05:14:51;10.33;;;9.43;;
53040;SDS011;39326;42.650;23.248;2023-12-20T05:17:17;8.50;;;7.80;;
53040;SDS011;39326;42.650;23.248;2023-12-20T05:19:42;8.90;;;8.20;;
53040;SDS011;39326;42.650;23.248;2023-12-20T05:22:08;9.40;;;8.60;;
53040;SDS011;39326;42.650;23.248;2023-12-20T05:24:33;8.80;;;8.10;;
53040;SDS011;39326;42.650;23.248;2023-12-20T05:26:59;9.80;;;8.90;;
53040;SDS011;39326;42.650;23.248;2023-12-20T05:29:24;11.00;;;9.73;;
53040;SDS011;39326;42.650;23.248;2023-12-20T05:31:49;9.93;;;8.83;;
53040;SDS011;39326;42.650;23.248;2023-12-20T05:34:15;9.50;;;8.50;;
53040;SDS011;39326;42.650;23.248;2023-12-20T05:36:40;10.17;;;9.10;;
53040;SDS011;39326;42.650;23.248;2023-12-20T05:39:06;9.30;;;7.43;;
53040;SDS011;39326;42.650;23.248;2023-12-20T05:41:32;10.37;;;9.10;;
53040;SDS011;39326;42.650;23.248;2023-12-20T05:43:58;10.73;;;9.63;;
53040;SDS011;39326;42.650;23.248;2023-12-20T05:46:24;10.80;;;9.70;;
53040;SDS011;39326;42.650;23.248;2023-12-20T05:48:49;9.77;;;8.00;;
53040;SDS011;39326;42.650;23.248;2023-12-20T05:51:16;12.33;;;10.70;;
53040;SDS011;39326;42.650;23.248;2023-12-20T05:53:42;13.53;;;11.63;;
53040;SDS011;39326;42.650;23.248;2023-12-20T05:56:07;12.83;;;10.07;;
53040;SDS011;39326;42.650;23.248;2023-12-20T05:58:33;13.70;;;10.90;;
53040;SDS011;39326;42.650;23.248;2023-12-20T06:00:58;10.10;;;8.83;;
53040;SDS011;39326;42.650;23.248;2023-12-20T06:03:24;8.37;;;7.37;;
53040;SDS011;39326;42.650;23.248;2023-12-20T06:05:49;11.60;;;9.33;;
53040;SDS011;39326;42.650;23.248;2023-12-20T06:08:15;9.00;;;7.87;;
53040;SDS011;39326;42.650;23.248;2023-12-20T06:10:40;8.17;;;6.90;;
53040;SDS011;39326;42.650;23.248;2023-12-20T06:13:05;7.17;;;6.37;;
53040;SDS011;39326;42.650;23.248;2023-12-20T06:15:32;7.10;;;6.40;;
53040;SDS011;39326;42.650;23.248;2023-12-20T06:17:58;8.27;;;7.40;;
53040;SDS011;39326;42.650;23.248;2023-12-20T06:20:23;9.93;;;8.00;;
53040;SDS011;39326;42.650;23.248;2023-12-20T06:22:48;10.17;;;9.03;;
53040;SDS011;39326;42.650;23.248;2023-12-20T06:25:14;11.07;;;9.70;;
53040;SDS011;39326;42.650;23.248;2023-12-20T06:27:40;10.07;;;9.03;;
53040;SDS011;39326;42.650;23.248;2023-12-20T06:30:06;8.83;;;7.87;;
53040;SDS011;39326;42.650;23.248;2023-12-20T06:32:32;10.37;;;9.07;;
53040;SDS011;39326;42.650;23.248;2023-12-20T06:34:59;9.47;;;8.33;;
53040;SDS011;39326;42.650;23.248;2023-12-20T06:37:24;10.80;;;9.07;;
53040;SDS011;39326;42.650;23.248;2023-12-20T06:39:50;12.17;;;10.50;;
53040;SDS011;39326;42.650;23.248;2023-12-20T06:42:15;12.13;;;10.43;;
53040;SDS011;39326;42.650;23.248;2023-12-20T06:44:41;12.10;;;10.33;;
53040;SDS011;39326;42.650;23.248;2023-12-20T06:47:06;14.10;;;10.93;;
53040;SDS011;39326;42.650;23.248;2023-12-20T06:49:32;10.50;;;9.27;;
53040;SDS011;39326;42.650;23.248;2023-12-20T06:51:57;11.93;;;10.73;;
53040;SDS011;39326;42.650;23.248;2023-12-20T06:54:23;15.33;;;11.57;;
53040;SDS011;39326;42.650;23.248;2023-12-20T06:56:48;15.03;;;10.90;;
53040;SDS011;39326;42.650;23.248;2023-12-20T06:59:14;12.97;;;11.60;;
53040;SDS011;39326;42.650;23.248;2023-12-20T07:01:39;14.77;;;12.20;;
53040;SDS011;39326;42.650;23.248;2023-12-20T07:04:05;13.33;;;11.47;;
53040;SDS011;39326;42.650;23.248;2023-12-20T07:06:30;16.00;;;12.20;;
53040;SDS011;39326;42.650;23.248;2023-12-20T07:08:55;13.87;;;11.07;;
53040;SDS011;39326;42.650;23.248;2023-12-20T07:11:21;13.57;;;11.20;;
53040;SDS011;39326;42.650;23.248;2023-12-20T07:13:46;12.00;;;10.73;;
53040;SDS011;39326;42.650;23.248;2023-12-20T07:16:12;16.07;;;12.47;;
53040;SDS011;39326;42.650;23.248;2023-12-20T07:18:38;15.70;;;11.70;;
53040;SDS011;39326;42.650;23.248;2023-12-20T07:21:03;13.33;;;11.03;;
53040;SDS011;39326;42.650;23.248;2023-12-20T07:23:29;13.80;;;11.70;;
53040;SDS011;39326;42.650;23.248;2023-12-20T07:25:54;14.23;;;12.70;;
53040;SDS011;39326;42.650;23.248;2023-12-20T07:28:20;12.10;;;10.90;;
53040;SDS011;39326;42.650;23.248;2023-12-20T07:30:45;12.10;;;9.87;;
53040;SDS011;39326;42.650;23.248;2023-12-20T07:33:11;9.87;;;8.43;;
53040;SDS011;39326;42.650;23.248;2023-12-20T07:35:37;11.93;;;10.73;;
53040;SDS011;39326;42.650;23.248;2023-12-20T07:38:03;14.77;;;13.17;;
53040;SDS011;39326;42.650;23.248;2023-12-20T07:40:28;12.27;;;10.73;;
53040;SDS011;39326;42.650;23.248;2023-12-20T07:42:54;12.03;;;10.77;;
53040;SDS011;39326;42.650;23.248;2023-12-20T07:45:19;12.53;;;11.10;;
53040;SDS011;39326;42.650;23.248;2023-12-20T07:47:44;11.90;;;10.57;;
53040;SDS011;39326;42.650;23.248;2023-12-20T07:50:10;10.90;;;9.80;;
53040;SDS011;39326;42.650;23.248;2023-12-20T07:52:35;12.43;;;11.23;;
53040;SDS011;39326;42.650;23.248;2023-12-20T07:55:01;18.67;;;16.67;;
53040;SDS011;39326;42.650;23.248;2023-12-20T07:57:28;18.20;;;15.63;;
53040;SDS011;39326;42.650;23.248;2023-12-20T07:59:54;20.07;;;15.93;;
53040;SDS011;39326;42.650;23.248;2023-12-20T08:02:20;21.03;;;17.83;;
53040;SDS011;39326;42.650;23.248;2023-12-20T08:04:45;23.00;;;19.40;;
53040;SDS011;39326;42.650;23.248;2023-12-20T08:07:11;24.40;;;21.57;;
53040;SDS011;39326;42.650;23.248;2023-12-20T08:09:36;26.80;;;23.70;;
53040;SDS011;39326;42.650;23.248;2023-12-20T08:12:02;26.20;;;22.87;;
53040;SDS011;39326;42.650;23.248;2023-12-20T08:14:27;24.23;;;21.63;;
53040;SDS011;39326;42.650;23.248;2023-12-20T08:16:53;30.00;;;26.03;;
53040;SDS011;39326;42.650;23.248;2023-12-20T08:19:19;40.47;;;36.10;;
53040;SDS011;39326;42.650;23.248;2023-12-20T08:21:44;45.90;;;40.93;;
53040;SDS011;39326;42.650;23.248;2023-12-20T08:24:09;47.93;;;42.80;;
53040;SDS011;39326;42.650;23.248;2023-12-20T08:26:35;54.23;;;47.70;;
53040;SDS011;39326;42.650;23.248;2023-12-20T08:29:00;56.63;;;50.43;;
53040;SDS011;39326;42.650;23.248;2023-12-20T08:31:25;58.97;;;52.27;;
53040;SDS011;39326;42.650;23.248;2023-12-20T08:33:51;62.33;;;55.57;;
53040;SDS011;39326;42.650;23.248;2023-12-20T08:36:18;61.67;;;54.53;;
53040;SDS011;39326;42.650;23.248;2023-12-20T08:38:46;66.43;;;59.03;;
53040;SDS011;39326;42.650;23.248;2023-12-20T08:41:12;74.03;;;61.17;;
53040;SDS011;39326;42.650;23.248;2023-12-20T08:43:37;76.40;;;65.37;;
53040;SDS011;39326;42.650;23.248;2023-12-20T08:46:05;73.97;;;62.80;;
53040;SDS011;39326;42.650;23.248;2023-12-20T08:48:30;82.70;;;71.20;;
53040;SDS011;39326;42.650;23.248;2023-12-20T08:50:56;73.60;;;65.10;;
53040;SDS011;39326;42.650;23.248;2023-12-20T08:53:21;85.83;;;74.53;;
53040;SDS011;39326;42.650;23.248;2023-12-20T08:55:46;83.13;;;70.83;;
53040;SDS011;39326;42.650;23.248;2023-12-20T08:58:13;80.67;;;69.43;;
53040;SDS011;39326;42.650;23.248;2023-12-20T09:00:39;81.53;;;68.20;;
53040;SDS011;39326;42.650;23.248;2023-12-20T09:03:05;82.37;;;70.70;;
53040;SDS011;39326;42.650;23.248;2023-12-20T09:05:30;86.93;;;69.37;;
53040;SDS011;39326;42.650;23.248;2023-12-20T09:07:55;86.73;;;72.77;;
53040;SDS011;39326;42.650;23.248;2023-12-20T09:10:21;83.23;;;70.17;;
53040;SDS011;39326;42.650;23.248;2023-12-20T09:12:50;90.00;;;74.80;;
53040;SDS011;39326;42.650;23.248;2023-12-20T09:15:25;91.70;;;75.33;;
53040;SDS011;39326;42.650;23.248;2023-12-20T09:17:51;98.90;;;83.80;;
53040;SDS011;39326;42.650;23.248;2023-12-20T09:20:17;103.70;;;83.60;;
53040;SDS011;39326;42.650;23.248;2023-12-20T09:22:43;96.27;;;83.73;;
53040;SDS011;39326;42.650;23.248;2023-12-20T09:25:09;104.60;;;85.13;;
53040;SDS011;39326;42.650;23.248;2023-12-20T09:27:35;112.20;;;87.30;;
53040;SDS011;39326;42.650;23.248;2023-12-20T09:30:00;113.97;;;88.10;;
53040;SDS011;39326;42.650;23.248;2023-12-20T09:32:26;113.63;;;89.17;;
53040;SDS011;39326;42.650;23.248;2023-12-20T09:34:51;111.10;;;90.50;;
53040;SDS011;39326;42.650;23.248;2023-12-20T09:37:17;110.07;;;87.57;;
53040;SDS011;39326;42.650;23.248;2023-12-20T09:39:42;111.73;;;87.87;;
53040;SDS011;39326;42.650;23.248;2023-12-20T09:42:08;101.97;;;82.83;;
53040;SDS011;39326;42.650;23.248;2023-12-20T09:44:38;118.30;;;90.73;;
53040;SDS011;39326;42.650;23.248;2023-12-20T09:47:07;114.13;;;87.87;;
53040;SDS011;39326;42.650;23.248;2023-12-20T09:49:33;115.10;;;89.57;;
53040;SDS011;39326;42.650;23.248;2023-12-20T09:51:59;119.50;;;92.13;;
53040;SDS011;39326;42.650;23.248;2023-12-20T09:54:25;113.73;;;89.40;;
53040;SDS011;39326;42.650;23.248;2023-12-20T09:56:53;108.47;;;85.33;;
53040;SDS011;39326;42.650;23.248;2023-12-20T09:59:18;108.30;;;83.23;;
53040;SDS011;39326;42.650;23.248;2023-12-20T10:01:44;108.00;;;86.63;;
53040;SDS011;39326;42.650;23.248;2023-12-20T10:04:10;108.43;;;85.93;;
53040;SDS011;39326;42.650;23.248;2023-12-20T10:06:39;96.03;;;80.70;;
53040;SDS011;39326;42.650;23.248;2023-12-20T10:09:05;101.67;;;80.30;;
53040;SDS011;39326;42.650;23.248;2023-12-20T10:11:30;97.87;;;78.30;;
53040;SDS011;39326;42.650;23.248;2023-12-20T10:13:59;98.83;;;80.77;;
53040;SDS011;39326;42.650;23.248;2023-12-20T10:16:26;104.07;;;83.37;;
53040;SDS011;39326;42.650;23.248;2023-12-20T10:18:52;94.70;;;77.93;;
53040;SDS011;39326;42.650;23.248;2023-12-20T10:21:18;92.47;;;77.13;;
53040;SDS011;39326;42.650;23.248;2023-12-20T10:23:45;96.77;;;81.43;;
53040;SDS011;39326;42.650;23.248;2023-12-20T10:26:10;93.80;;;80.67;;
53040;SDS011;39326;42.650;23.248;2023-12-20T10:28:45;92.73;;;80.70;;
53040;SDS011;39326;42.650;23.248;2023-12-20T10:31:10;96.87;;;82.43;;
53040;SDS011;39326;42.650;23.248;2023-12-20T10:33:51;95.80;;;82.17;;
53040;SDS011;39326;42.650;23.248;2023-12-20T10:36:17;97.00;;;82.83;;
53040;SDS011;39326;42.650;23.248;2023-12-20T10:38:42;93.67;;;79.60;;
53040;SDS011;39326;42.650;23.248;2023-12-20T10:41:08;99.37;;;84.07;;
53040;SDS011;39326;42.650;23.248;2023-12-20T10:43:35;93.33;;;82.20;;
53040;SDS011;39326;42.650;23.248;2023-12-20T10:46:02;105.27;;;91.27;;
53040;SDS011;39326;42.650;23.248;2023-12-20T10:48:28;97.30;;;84.70;;
53040;SDS011;39326;42.650;23.248;2023-12-20T10:50:55;99.93;;;83.27;;
53040;SDS011;39326;42.650;23.248;2023-12-20T10:53:21;98.97;;;84.80;;
53040;SDS011;39326;42.650;23.248;2023-12-20T10:55:48;100.83;;;86.93;;
53040;SDS011;39326;42.650;23.248;2023-12-20T10:58:15;101.83;;;85.73;;
53040;SDS011;39326;42.650;23.248;2023-12-20T11:00:42;102.90;;;89.67;;
53040;SDS011;39326;42.650;23.248;2023-12-20T11:03:11;101.83;;;87.40;;
53040;SDS011;39326;42.650;23.248;2023-12-20T11:05:44;100.37;;;88.40;;
53040;SDS011;39326;42.650;23.248;2023-12-20T11:08:36;96.47;;;85.70;;
53040;SDS011;39326;42.650;23.248;2023-12-20T11:11:14;102.73;;;90.30;;
53040;SDS011;39326;42.650;23.248;2023-12-20T11:14:18;105.97;;;87.60;;
53040;SDS011;39326;42.650;23.248;2023-12-20T11:16:48;106.67;;;92.37;;
53040;SDS011;39326;42.650;23.248;2023-12-20T11:19:14;95.73;;;85.27;;
53040;SDS011;39326;42.650;23.248;2023-12-20T11:21:40;103.70;;;92.47;;
53040;SDS011;39326;42.650;23.248;2023-12-20T11:24:07;102.73;;;91.73;;
53040;SDS011;39326;42.650;23.248;2023-12-20T11:26:33;100.40;;;89.97;;
53040;SDS011;39326;42.650;23.248;2023-12-20T11:29:40;99.93;;;89.13;;
53040;SDS011;39326;42.650;23.248;2023-12-20T11:34:50;93.53;;;83.40;;
53040;SDS011;39326;42.650;23.248;2023-12-20T11:37:16;99.23;;;89.17;;
53040;SDS011;39326;42.650;23.248;2023-12-20T11:39:42;96.23;;;85.87;;
53040;SDS011;39326;42.650;23.248;2023-12-20T11:42:09;97.43;;;87.30;;
53040;SDS011;39326;42.650;23.248;2023-12-20T11:44:36;93.70;;;84.03;;
53040;SDS011;39326;42.650;23.248;2023-12-20T11:47:02;90.13;;;80.60;;
53040;SDS011;39326;42.650;23.248;2023-12-20T11:49:28;96.90;;;87.20;;
53040;SDS011;39326;42.650;23.248;2023-12-20T11:51:55;89.10;;;79.57;;
53040;SDS011;39326;42.650;23.248;2023-12-20T11:54:21;93.37;;;83.63;;
53040;SDS011;39326;42.650;23.248;2023-12-20T11:56:47;95.37;;;85.60;;
53040;SDS011;39326;42.650;23.248;2023-12-20T11:59:13;94.13;;;84.43;;
53040;SDS011;39326;42.650;23.248;2023-12-20T12:01:38;94.73;;;84.90;;
53040;SDS011;39326;42.650;23.248;2023-12-20T12:04:04;94.70;;;84.90;;
53040;SDS011;39326;42.650;23.248;2023-12-20T12:06:30;92.40;;;83.23;;
53040;SDS011;39326;42.650;23.248;2023-12-20T12:08:56;94.03;;;84.70;;
53040;SDS011;39326;42.650;23.248;2023-12-20T12:11:21;98.37;;;88.17;;
53040;SDS011;39326;42.650;23.248;2023-12-20T12:13:48;100.80;;;90.63;;
53040;SDS011;39326;42.650;23.248;2023-12-20T12:16:16;99.70;;;89.70;;
53040;SDS011;39326;42.650;23.248;2023-12-20T12:18:45;92.20;;;83.13;;
53040;SDS011;39326;42.650;23.248;2023-12-20T12:21:10;99.17;;;89.00;;
53040;SDS011;39326;42.650;23.248;2023-12-20T12:23:44;97.13;;;87.47;;
53040;SDS011;39326;42.650;23.248;2023-12-20T12:26:10;97.57;;;87.97;;
53040;SDS011;39326;42.650;23.248;2023-12-20T12:28:35;99.30;;;89.77;;
53040;SDS011;39326;42.650;23.248;2023-12-20T12:31:02;98.97;;;88.93;;
53040;SDS011;39326;42.650;23.248;2023-12-20T12:33:27;97.20;;;87.37;;
53040;SDS011;39326;42.650;23.248;2023-12-20T12:35:53;99.53;;;89.63;;
53040;SDS011;39326;42.650;23.248;2023-12-20T12:38:20;96.47;;;86.90;;
53040;SDS011;39326;42.650;23.248;2023-12-20T12:40:46;99.73;;;89.73;;
53040;SDS011;39326;42.650;23.248;2023-12-20T12:43:12;103.10;;;92.50;;
53040;SDS011;39326;42.650;23.248;2023-12-20T12:45:37;105.53;;;94.03;;
53040;SDS011;39326;42.650;23.248;2023-12-20T12:48:03;92.47;;;82.90;;
53040;SDS011;39326;42.650;23.248;2023-12-20T12:50:30;101.90;;;90.87;;
53040;SDS011;39326;42.650;23.248;2023-12-20T12:52:56;100.90;;;89.67;;
53040;SDS011;39326;42.650;23.248;2023-12-20T12:55:21;103.20;;;89.73;;
53040;SDS011;39326;42.650;23.248;2023-12-20T12:57:46;95.63;;;85.20;;
53040;SDS011;39326;42.650;23.248;2023-12-20T13:00:12;96.13;;;84.10;;
53040;SDS011;39326;42.650;23.248;2023-12-20T13:02:38;99.90;;;86.83;;
53040;SDS011;39326;42.650;23.248;2023-12-20T13:05:07;102.83;;;87.83;;
53040;SDS011;39326;42.650;23.248;2023-12-20T13:07:33;110.90;;;95.13;;
53040;SDS011;39326;42.650;23.248;2023-12-20T13:09:58;113.87;;;93.50;;
53040;SDS011;39326;42.650;23.248;2023-12-20T13:12:25;107.90;;;91.73;;
53040;SDS011;39326;42.650;23.248;2023-12-20T13:14:50;110.63;;;92.33;;
53040;SDS011;39326;42.650;23.248;2023-12-20T13:17:15;114.87;;;93.33;;
53040;SDS011;39326;42.650;23.248;2023-12-20T13:19:41;106.13;;;88.33;;
53040;SDS011;39326;42.650;23.248;2023-12-20T13:22:07;116.57;;;94.13;;
53040;SDS011;39326;42.650;23.248;2023-12-20T13:24:32;106.53;;;92.70;;
53040;SDS011;39326;42.650;23.248;2023-12-20T13:26:57;122.80;;;96.10;;
53040;SDS011;39326;42.650;23.248;2023-12-20T13:29:23;113.97;;;94.93;;
53040;SDS011;39326;42.650;23.248;2023-12-20T13:31:51;109.37;;;93.03;;
53040;SDS011;39326;42.650;23.248;2023-12-20T13:34:16;106.27;;;90.00;;
53040;SDS011;39326;42.650;23.248;2023-12-20T13:36:42;102.67;;;89.43;;
53040;SDS011;39326;42.650;23.248;2023-12-20T13:39:10;108.70;;;90.00;;
53040;SDS011;39326;42.650;23.248;2023-12-20T13:41:37;112.33;;;91.63;;
53040;SDS011;39326;42.650;23.248;2023-12-20T13:44:02;106.33;;;92.13;;
53040;SDS011;39326;42.650;23.248;2023-12-20T13:46:28;108.13;;;88.77;;
53040;SDS011;39326;42.650;23.248;2023-12-20T13:48:54;112.60;;;92.87;;
53040;SDS011;39326;42.650;23.248;2023-12-20T13:51:20;103.07;;;89.20;;
53040;SDS011;39326;42.650;23.248;2023-12-20T13:53:46;106.73;;;84.40;;
53040;SDS011;39326;42.650;23.248;2023-12-20T13:56:13;104.87;;;83.90;;
53040;SDS011;39326;42.650;23.248;2023-12-20T13:58:39;102.60;;;87.90;;
53040;SDS011;39326;42.650;23.248;2023-12-20T14:01:05;104.13;;;90.13;;
53040;SDS011;39326;42.650;23.248;2023-12-20T14:03:31;101.23;;;86.73;;
53040;SDS011;39326;42.650;23.248;2023-12-20T14:05:57;110.47;;;91.20;;
53040;SDS011;39326;42.650;23.248;2023-12-20T14:08:22;102.17;;;88.77;;
53040;SDS011;39326;42.650;23.248;2023-12-20T14:10:48;102.93;;;89.97;;
53040;SDS011;39326;42.650;23.248;2023-12-20T14:13:13;98.87;;;83.53;;